Time;durP1;ratioP1;P1;durP2;ratioP2;P2;SDS_P1;SDS_P2;PMS_P1;PMS_P2;Temp;Humidity;BMP_temperature;BMP_pressure;BME280_temperature;BME280_humidity;BME280_pressure;Samples;Min_cycle;Max_cycle;Signal;HPM_P1;HPM_P2
2022/05/03 00:00:50;;;;;;;11.43;10.32;;;;;;;11.29;56.53;100874.69;5081192;28;20074;-26
2022/05/03 00:03:24;;;;;;;11.40;10.18;;;;;;;11.28;56.87;100872.06;5075768;28;20442;-26
2022/05/03 00:05:58;;;;;;;11.65;10.27;;;;;;;11.28;57.12;100866.78;5077289;28;20675;-26
2022/05/03 00:08:24;;;;;;;11.73;10.52;;;;;;;11.27;56.94;100878.25;5075946;28;20469;-26
2022/05/03 00:11:27;;;;;;;11.57;10.27;;;;;;;11.24;56.66;100876.47;5077546;28;20032;-26
2022/05/03 00:14:08;;;;;;;11.20;10.00;;;;;;;11.24;56.58;100875.63;5084434;28;20111;-26
2022/05/03 00:16:35;;;;;;;11.98;10.77;;;;;;;11.22;56.62;100873.00;5081290;28;20506;-28
2022/05/03 00:19:05;;;;;;;12.93;11.05;;;;;;;11.22;56.24;100870.34;5079781;28;20031;-27
2022/05/03 00:21:32;;;;;;;10.90;9.80;;;;;;;11.20;56.58;100874.75;5082951;28;20054;-26
2022/05/03 00:23:57;;;;;;;11.55;10.13;;;;;;;11.20;56.87;100871.25;5077851;28;20105;-26
2022/05/03 00:26:22;;;;;;;12.77;10.90;;;;;;;11.17;56.68;100869.50;5084793;28;20557;-28
2022/05/03 00:28:48;;;;;;;11.32;10.25;;;;;;;11.16;56.89;100862.47;5070315;28;20024;-26
2022/05/03 00:31:14;;;;;;;11.57;10.32;;;;;;;11.14;56.81;100851.91;5074187;28;20034;-26
2022/05/03 00:33:40;;;;;;;11.45;10.25;;;;;;;11.12;56.81;100850.19;5080197;28;20107;-26
2022/05/03 00:36:06;;;;;;;12.00;10.70;;;;;;;11.09;57.01;100851.09;5077781;28;20460;-26
2022/05/03 00:38:34;;;;;;;11.55;10.32;;;;;;;11.09;56.84;100853.72;5078673;28;20024;-28
2022/05/03 00:41:02;;;;;;;11.90;10.65;;;;;;;11.09;57.30;100856.38;5099150;28;20103;-26
2022/05/03 00:43:42;;;;;;;12.52;11.32;;;;;;;11.07;57.09;100858.13;5077520;28;20514;-26
2022/05/03 00:46:14;;;;;;;11.10;10.20;;;;;;;11.04;57.24;100855.53;5081770;28;20403;-26
2022/05/03 00:49:01;;;;;;;12.00;10.90;;;;;;;11.03;57.14;100856.41;5076762;28;20035;-26
2022/05/03 00:51:52;;;;;;;11.75;10.55;;;;;;;11.01;56.89;100851.13;5084698;28;20032;-26
2022/05/03 00:54:28;;;;;;;;;;;;;;;10.98;56.79;100848.56;5085830;28;20024;-26
2022/05/03 00:57:07;;;;;;;11.95;10.30;;;;;;;10.97;57.10;100857.34;5075976;28;19942;-27
2022/05/03 00:59:40;;;;;;;13.00;10.75;;;;;;;10.94;56.73;100857.34;5094099;28;20059;-27
2022/05/03 01:02:07;;;;;;;12.18;10.98;;;;;;;10.91;56.81;100858.25;5084682;28;20032;-26
2022/05/03 01:04:41;;;;;;;11.90;10.75;;;;;;;10.89;57.16;100857.41;5082126;28;20056;-26
2022/05/03 01:07:32;;;;;;;12.63;11.18;;;;;;;10.85;56.71;100862.72;5085708;28;20044;-26
2022/05/03 01:10:06;;;;;;;14.07;11.40;;;;;;;10.82;56.78;100865.38;5091656;28;20020;-26
2022/05/03 01:12:52;;;;;;;12.73;11.20;;;;;;;10.77;57.04;100858.38;5079612;28;20020;-27
2022/05/03 01:15:27;;;;;;;11.50;10.30;;;;;;;10.74;56.83;100858.38;5076686;28;20106;-26
2022/05/03 01:18:11;;;;;;;13.07;11.77;;;;;;;10.75;56.93;100861.91;5078544;28;20097;-26
2022/05/03 01:21:02;;;;;;;13.50;11.88;;;;;;;10.71;56.91;100870.72;5081284;28;20536;-27
2022/05/03 01:23:27;;;;;;;12.30;11.00;;;;;;;10.67;56.68;100856.66;5079671;28;20502;-26
2022/05/03 01:26:15;;;;;;;12.50;11.20;;;;;;;10.64;56.91;100856.72;5083597;28;20085;-27
2022/05/03 01:28:55;;;;;;;12.52;11.27;;;;;;;10.59;56.94;100859.38;5062270;28;20104;-27
2022/05/03 01:31:22;;;;;;;14.82;11.82;;;;;;;10.55;56.89;100859.38;5081602;28;20028;-27
2022/05/03 01:33:49;;;;;;;13.23;11.68;;;;;;;10.50;56.77;100860.28;5075216;28;20403;-27
2022/05/03 01:36:22;;;;;;;13.13;11.60;;;;;;;10.47;56.85;100851.53;5078364;28;20047;-26
2022/05/03 01:39:16;;;;;;;13.75;12.45;;;;;;;10.43;56.93;100852.41;5081208;28;20043;-26
2022/05/03 01:42:00;;;;;;;13.15;11.82;;;;;;;10.39;56.66;100848.91;5083360;28;20039;-26
2022/05/03 01:44:35;;;;;;;13.52;12.00;;;;;;;10.34;57.02;100856.81;5083533;28;20028;-26
2022/05/03 01:47:23;;;;;;;13.63;10.80;;;;;;;10.31;56.66;100851.59;5085711;28;20046;-26
2022/05/03 01:50:19;;;;;;;13.23;11.85;;;;;;;10.27;56.91;100856.00;5085114;28;20479;-26
2022/05/03 01:53:12;;;;;;;13.05;11.52;;;;;;;10.24;57.00;100863.03;5080929;28;20483;-26
2022/05/03 01:55:52;;;;;;;13.10;11.80;;;;;;;10.22;57.07;100859.53;5085356;28;20106;-27
2022/05/03 01:59:04;;;;;;;15.02;11.93;;;;;;;10.18;57.33;100855.16;5081516;28;20102;-28
2022/05/03 02:01:43;;;;;;;11.93;10.82;;;;;;;10.13;57.11;100856.06;5062041;28;20040;-27
2022/05/03 02:04:53;;;;;;;14.13;12.38;;;;;;;10.11;57.63;100852.53;5081022;28;20044;-26
2022/05/03 02:07:43;;;;;;;12.70;11.32;;;;;;;10.07;57.39;100848.16;5074964;28;20191;-26
2022/05/03 02:10:33;;;;;;;13.85;11.65;;;;;;;10.04;57.26;100852.59;5074154;28;20034;-26
2022/05/03 02:13:14;;;;;;;14.10;11.77;;;;;;;10.02;57.39;100849.94;5077039;28;20036;-26
2022/05/03 02:15:43;;;;;;;12.77;11.48;;;;;;;9.98;57.57;100856.13;5080202;28;20035;-26
2022/05/03 02:18:33;;;;;;;12.80;11.52;;;;;;;9.96;57.35;100856.13;5092709;28;20028;-28
2022/05/03 02:21:18;;;;;;;17.08;11.98;;;;;;;9.94;57.56;100846.47;5080546;28;20131;-26
2022/05/03 02:24:01;;;;;;;12.38;11.07;;;;;;;9.91;57.63;100842.09;5076732;28;20111;-26
2022/05/03 02:27:07;;;;;;;13.85;12.43;;;;;;;9.90;57.39;100842.09;5076629;28;20070;-26
2022/05/03 02:29:43;;;;;;;17.17;12.30;;;;;;;9.86;57.63;100843.84;5080348;28;20042;-26
2022/05/03 02:32:11;;;;;;;11.90;10.68;;;;;;;9.85;57.43;100848.28;5089981;28;20028;-26
2022/05/03 02:34:49;;;;;;;16.25;12.20;;;;;;;9.81;57.35;100836.00;5088649;28;20070;-26
2022/05/03 02:37:24;;;;;;;12.35;11.15;;;;;;;9.78;57.49;100846.53;5086569;28;20483;-26
2022/05/03 02:40:19;;;;;;;13.27;11.88;;;;;;;9.74;57.32;100837.75;5084233;28;20423;-26
2022/05/03 02:42:45;;;;;;;13.75;12.07;;;;;;;9.73;57.52;100841.25;5074638;28;20040;-27
2022/05/03 02:45:12;;;;;;;12.95;11.43;;;;;;;9.71;57.59;100842.16;5089081;28;20070;-26
2022/05/03 02:47:43;;;;;;;12.82;11.48;;;;;;;9.68;57.54;100844.78;5087942;28;20134;-26
2022/05/03 02:50:20;;;;;;;14.38;12.68;;;;;;;9.64;57.63;100843.94;5084187;28;20036;-26
2022/05/03 02:53:08;;;;;;;13.27;11.98;;;;;;;9.61;57.75;100855.34;5087551;28;20028;-26
2022/05/03 02:55:54;;;;;;;17.00;12.05;;;;;;;9.58;57.46;100850.09;5085437;28;20110;-26
2022/05/03 02:58:44;;;;;;;13.65;12.25;;;;;;;9.56;57.43;100846.56;5084100;28;20316;-26
2022/05/03 03:01:51;;;;;;;14.90;13.02;;;;;;;9.52;57.72;100844.84;5086024;28;20099;-26
2022/05/03 03:04:18;;;;;;;14.73;11.77;;;;;;;9.49;57.42;100839.56;5083920;28;20028;-26
2022/05/03 03:06:44;;;;;;;13.23;11.65;;;;;;;9.46;57.76;100845.72;5086039;28;20034;-26
2022/05/03 03:09:15;;;;;;;13.77;12.38;;;;;;;9.42;57.72;100843.09;5083593;28;20024;-26
2022/05/03 03:11:43;;;;;;;;;;;;;;;9.42;57.72;100832.56;5087058;28;20379;-26
2022/05/03 03:14:21;;;;;;;14.38;12.18;;;;;;;9.38;57.61;100844.84;5083792;28;19919;-26
2022/05/03 03:16:53;;;;;;;14.40;12.55;;;;;;;9.36;57.31;100839.59;5085652;28;20035;-26
2022/05/03 03:19:24;;;;;;;14.85;12.10;;;;;;;9.32;57.92;100851.00;5085359;28;20102;-26
2022/05/03 03:21:49;;;;;;;;;;;;;;;9.29;57.53;100845.75;5083165;28;20024;-26
2022/05/03 03:24:16;;;;;;;13.45;11.82;;;;;;;9.26;57.73;100842.22;5100157;28;19924;-26
2022/05/03 03:26:43;;;;;;;12.73;11.50;;;;;;;9.24;57.45;100839.63;5087061;28;20032;-26
2022/05/03 03:29:09;;;;;;;12.95;11.52;;;;;;;9.22;57.74;100846.63;5089164;28;20672;-26
2022/05/03 03:31:35;;;;;;;16.08;12.38;;;;;;;9.20;57.84;100846.63;5082001;28;20028;-26
2022/05/03 03:34:01;;;;;;;13.50;11.75;;;;;;;9.17;57.62;100848.38;5088877;28;20024;-26
2022/05/03 03:36:26;;;;;;;14.27;11.60;;;;;;;9.14;57.97;100854.50;5088254;28;20024;-26
2022/05/03 03:38:52;;;;;;;13.50;11.55;;;;;;;9.14;57.75;100851.00;5083680;28;20032;-26
2022/05/03 03:41:17;;;;;;;13.88;11.85;;;;;;;9.09;57.87;100856.28;5080181;28;20028;-26
2022/05/03 03:43:43;;;;;;;14.05;12.45;;;;;;;9.08;58.16;100854.53;5083299;28;20107;-27
2022/05/03 03:46:08;;;;;;;13.07;11.52;;;;;;;9.06;58.49;100858.91;5086443;28;20024;-26
2022/05/03 03:48:34;;;;;;;15.38;11.77;;;;;;;9.03;58.28;100846.63;5084226;28;20344;-26
2022/05/03 03:51:00;;;;;;;15.23;11.25;;;;;;;9.02;58.19;100846.63;5082937;28;20024;-27
2022/05/03 03:53:26;;;;;;;12.23;11.02;;;;;;;9.00;58.28;100853.66;5085496;28;20179;-26
2022/05/03 03:55:51;;;;;;;13.60;11.70;;;;;;;9.00;58.10;100861.53;5085864;28;20029;-26
2022/05/03 03:58:17;;;;;;;12.82;11.43;;;;;;;8.97;58.18;100855.38;5083085;28;20502;-26
2022/05/03 04:00:42;;;;;;;16.85;12.27;;;;;;;8.94;58.47;100858.00;5082687;28;20024;-26
2022/05/03 04:03:08;;;;;;;14.18;12.43;;;;;;;8.94;58.47;100859.78;5076897;28;20495;-26
2022/05/03 04:05:34;;;;;;;14.75;12.05;;;;;;;8.91;58.25;100857.16;5085116;28;20028;-26
2022/05/03 04:07:59;;;;;;;17.10;11.77;;;;;;;8.87;58.36;100851.00;5083379;28;20044;-26
2022/05/03 04:10:25;;;;;;;14.07;12.60;;;;;;;8.87;58.32;100855.41;5083456;28;20458;-26
2022/05/03 04:12:50;;;;;;;14.60;12.52;;;;;;;8.85;58.57;100848.38;5085550;28;20669;-26
2022/05/03 04:15:16;;;;;;;14.85;12.52;;;;;;;8.83;58.58;100849.22;5100618;28;20050;-27
2022/05/03 04:17:44;;;;;;;14.80;11.93;;;;;;;8.83;58.44;100860.66;5079678;28;20437;-28
2022/05/03 04:20:15;;;;;;;14.55;11.85;;;;;;;8.80;58.33;100855.38;5079805;28;20031;-26
2022/05/03 04:22:40;;;;;;;14.75;11.98;;;;;;;8.79;58.34;100858.00;5081970;28;20032;-26
2022/05/03 04:25:06;;;;;;;13.75;12.32;;;;;;;8.79;58.60;100866.78;5078183;28;20024;-26
2022/05/03 04:27:31;;;;;;;14.80;13.00;;;;;;;8.78;58.99;100857.16;5083159;28;20028;-28
2022/05/03 04:29:58;;;;;;;13.25;11.07;;;;;;;8.77;58.72;100854.50;5081944;28;20023;-26
2022/05/03 04:32:23;;;;;;;14.48;12.02;;;;;;;8.78;58.84;100856.25;5084650;28;20062;-26
2022/05/03 04:34:49;;;;;;;14.20;12.18;;;;;;;8.75;58.79;100851.88;5081031;28;20052;-26
2022/05/03 04:37:14;;;;;;;17.77;11.80;;;;;;;8.74;58.81;100855.38;5081583;28;20030;-26
2022/05/03 04:39:40;;;;;;;16.73;13.20;;;;;;;8.75;58.80;100854.50;5078828;28;20026;-26
2022/05/03 04:42:06;;;;;;;12.90;11.38;;;;;;;8.75;58.72;100859.75;5078389;28;20457;-26
2022/05/03 04:44:31;;;;;;;13.50;11.23;;;;;;;8.76;58.69;100858.88;5082798;28;20222;-26
2022/05/03 04:46:57;;;;;;;13.00;11.50;;;;;;;8.76;58.91;100860.63;5084083;28;20032;-26
2022/05/03 04:49:22;;;;;;;13.73;11.52;;;;;;;8.76;58.90;100858.00;5085300;28;20117;-28
2022/05/03 04:51:47;;;;;;;13.38;11.98;;;;;;;8.78;58.71;100866.78;5085138;28;20020;-27
2022/05/03 04:54:13;;;;;;;15.73;11.80;;;;;;;8.78;59.41;100874.66;5080081;28;20024;-26
2022/05/03 04:56:40;;;;;;;15.27;11.85;;;;;;;8.78;59.58;100872.03;5075669;28;20027;-26
2022/05/03 04:59:05;;;;;;;14.55;11.55;;;;;;;8.80;59.30;100871.16;5079304;28;20440;-26
2022/05/03 05:01:32;;;;;;;13.77;11.82;;;;;;;8.81;59.78;100880.78;5079482;28;20040;-27
2022/05/03 05:03:57;;;;;;;13.88;11.88;;;;;;;8.82;59.99;100874.69;5080123;28;20031;-26
2022/05/03 05:06:22;;;;;;;12.23;10.38;;;;;;;8.84;60.18;100886.06;5082783;28;20502;-26
2022/05/03 05:08:48;;;;;;;13.35;11.23;;;;;;;8.87;60.08;100886.97;5083476;28;20475;-26
2022/05/03 05:11:13;;;;;;;12.57;11.25;;;;;;;8.88;59.54;100880.81;5083967;28;20394;-26
2022/05/03 05:13:38;;;;;;;12.80;11.00;;;;;;;8.90;60.12;100886.97;5079874;28;20037;-26
2022/05/03 05:16:05;;;;;;;12.13;10.82;;;;;;;8.92;60.42;100879.94;5076885;28;20090;-27
2022/05/03 05:18:30;;;;;;;15.98;11.95;;;;;;;8.94;60.19;100883.47;5084216;28;20584;-26
2022/05/03 05:20:56;;;;;;;12.93;10.57;;;;;;;8.95;60.27;100891.34;5080650;28;20029;-27
2022/05/03 05:23:22;;;;;;;13.48;10.35;;;;;;;8.98;60.28;100896.59;5081489;28;20026;-26
2022/05/03 05:25:48;;;;;;;14.18;11.20;;;;;;;9.02;60.59;100891.34;5084281;28;20032;-26
2022/05/03 05:28:16;;;;;;;13.77;11.02;;;;;;;9.03;60.56;100888.72;5079532;28;20023;-26
2022/05/03 05:30:42;;;;;;;14.85;10.73;;;;;;;9.07;60.67;100892.25;5081340;28;20036;-26
2022/05/03 05:33:08;;;;;;;14.32;10.90;;;;;;;9.10;60.47;100901.00;5068711;28;20038;-26
2022/05/03 05:35:33;;;;;;;11.18;10.05;;;;;;;9.14;60.49;100893.97;5085797;28;20025;-26
2022/05/03 05:37:59;;;;;;;12.00;10.55;;;;;;;9.18;61.22;100901.03;5080247;28;20028;-26
2022/05/03 05:40:24;;;;;;;11.25;10.18;;;;;;;9.22;61.29;100909.78;5084280;28;20069;-27
2022/05/03 05:42:50;;;;;;;12.68;9.70;;;;;;;9.23;61.12;100906.25;5082354;28;20035;-26
2022/05/03 05:45:16;;;;;;;11.73;10.13;;;;;;;9.27;61.34;100902.75;5082744;28;20036;-27
2022/05/03 05:47:42;;;;;;;10.77;9.27;;;;;;;9.30;60.88;100908.03;5080650;28;20031;-26
2022/05/03 05:50:08;;;;;;;12.30;9.73;;;;;;;9.34;61.03;100915.03;5073711;28;20035;-26
2022/05/03 05:55:18;;;;;;;12.13;9.43;;;;;;;9.42;61.04;100916.78;5086052;28;20027;-26
2022/05/03 05:57:43;;;;;;;10.70;9.13;;;;;;;9.46;61.12;100918.56;5081203;28;20013;-27
2022/05/03 06:00:09;;;;;;;12.68;8.98;;;;;;;9.49;60.89;100924.72;5083620;28;20028;-26
2022/05/03 06:02:35;;;;;;;10.80;9.35;;;;;;;9.54;60.80;100922.03;5094024;28;20020;-27
2022/05/03 06:05:00;;;;;;;12.35;8.70;;;;;;;9.57;60.95;100927.31;5083166;28;20077;-26
2022/05/03 06:07:26;;;;;;;10.05;9.00;;;;;;;9.61;61.01;100941.38;5084965;28;20020;-27
2022/05/03 06:09:52;;;;;;;11.40;9.27;;;;;;;9.66;61.44;100930.81;5085019;28;20047;-26
2022/05/03 06:12:17;;;;;;;11.23;9.32;;;;;;;9.69;61.00;100936.97;5080227;28;20492;-26
2022/05/03 06:14:42;;;;;;;10.05;9.05;;;;;;;9.72;61.22;100934.34;5081555;28;20054;-26
2022/05/03 06:17:07;;;;;;;11.75;8.73;;;;;;;9.77;60.89;100929.03;5083010;28;20027;-26
2022/05/03 06:19:33;;;;;;;10.90;9.13;;;;;;;9.80;60.97;100931.69;5084120;28;20020;-27
2022/05/03 06:21:58;;;;;;;11.48;9.05;;;;;;;9.86;60.91;100929.03;5079755;28;20020;-26
2022/05/03 06:24:24;;;;;;;10.48;9.38;;;;;;;9.91;60.99;100930.78;5083726;28;20518;-26
2022/05/03 06:26:49;;;;;;;9.00;7.75;;;;;;;9.94;61.15;100939.56;5080885;28;21278;-26
2022/05/03 06:29:14;;;;;;;13.30;8.73;;;;;;;9.97;61.41;100931.66;5082325;28;20024;-26
2022/05/03 06:31:40;;;;;;;11.65;8.20;;;;;;;10.04;60.58;100940.41;5082993;28;20041;-26
2022/05/03 06:34:05;;;;;;;10.88;9.05;;;;;;;10.09;60.79;100941.28;5081444;28;20072;-26
2022/05/03 06:36:31;;;;;;;11.85;8.65;;;;;;;10.16;59.73;100943.88;5077888;28;20391;-26
2022/05/03 06:38:56;;;;;;;9.20;8.20;;;;;;;10.21;60.03;100947.41;5083214;28;20498;-26
2022/05/03 06:41:22;;;;;;;12.13;8.23;;;;;;;10.26;60.47;100948.25;5080875;28;20440;-26
2022/05/03 06:43:47;;;;;;;15.02;8.43;;;;;;;10.32;59.87;100953.53;5081510;28;20498;-26
2022/05/03 06:46:13;;;;;;;10.77;8.60;;;;;;;10.42;60.30;100953.47;5084808;28;20023;-26
2022/05/03 06:48:38;;;;;;;11.10;8.90;;;;;;;10.49;60.50;100955.22;5083958;28;20124;-26
2022/05/03 06:51:05;;;;;;;12.38;8.65;;;;;;;10.55;60.53;100960.50;5083451;28;20478;-26
2022/05/03 06:53:31;;;;;;;9.88;8.80;;;;;;;10.66;59.95;100963.06;5083154;28;20027;-26
2022/05/03 06:55:57;;;;;;;10.88;8.38;;;;;;;10.72;59.79;100951.63;5079227;28;20012;-28
2022/05/03 06:58:22;;;;;;;8.88;7.97;;;;;;;10.82;59.67;100960.34;5082247;28;20055;-26
2022/05/03 07:00:47;;;;;;;9.50;7.70;;;;;;;10.89;59.11;100960.31;5079657;28;20062;-26
2022/05/03 07:03:12;;;;;;;10.15;7.90;;;;;;;10.98;59.22;100961.16;5080832;28;20029;-26
2022/05/03 07:05:39;;;;;;;9.43;8.43;;;;;;;11.02;60.02;100968.16;5080443;28;20028;-26
2022/05/03 07:08:04;;;;;;;8.73;7.82;;;;;;;11.10;60.01;100968.97;5076797;28;20024;-26
2022/05/03 07:10:30;;;;;;;10.52;8.23;;;;;;;11.18;59.89;100970.69;5080767;28;20032;-27
2022/05/03 07:12:55;;;;;;;11.80;7.90;;;;;;;11.25;60.06;100969.78;5080152;28;20785;-26
2022/05/03 07:15:21;;;;;;;9.95;8.98;;;;;;;11.37;59.45;100972.31;5086058;28;20031;-26
2022/05/03 07:23:16;;;;;;;9.75;8.20;;;;;;;11.70;58.70;100984.41;5085025;28;20031;-26
2022/05/03 07:25:42;;;;;;;8.30;7.10;;;;;;;11.85;59.40;100978.97;5084379;28;20070;-26
2022/05/03 07:28:07;;;;;;;7.82;7.03;;;;;;;11.97;59.28;100977.09;5086437;28;20024;-26
2022/05/03 07:30:34;;;;;;;7.75;7.05;;;;;;;12.10;59.45;100978.75;5085168;28;20032;-26
2022/05/03 07:33:00;;;;;;;7.40;6.40;;;;;;;12.21;59.41;100985.69;5083689;28;20020;-26
2022/05/03 07:35:25;;;;;;;8.48;6.75;;;;;;;12.32;58.45;100984.69;5083315;28;20059;-26
2022/05/03 07:37:51;;;;;;;8.88;7.97;;;;;;;12.42;58.48;100985.47;5084934;28;20035;-26
2022/05/03 07:40:16;;;;;;;8.70;7.28;;;;;;;12.53;58.54;100982.66;5088323;28;20062;-27
2022/05/03 07:42:41;;;;;;;7.95;6.80;;;;;;;12.67;58.87;100979.00;5083940;28;20029;-26
2022/05/03 07:45:08;;;;;;;7.90;6.60;;;;;;;12.79;58.80;100977.94;5086669;28;20473;-26
2022/05/03 07:47:34;;;;;;;8.30;6.40;;;;;;;12.90;58.23;100985.75;5084465;28;20020;-26
2022/05/03 07:49:59;;;;;;;8.77;6.57;;;;;;;13.02;57.31;100982.03;5085809;28;20016;-27
2022/05/03 07:52:24;;;;;;;8.23;6.65;;;;;;;13.15;57.89;100985.38;5079337;28;20123;-27
2022/05/03 07:54:50;;;;;;;7.40;6.60;;;;;;;13.21;57.23;100980.84;5082807;28;20069;-26
2022/05/03 07:57:15;;;;;;;7.20;5.88;;;;;;;13.38;58.42;100981.50;5087887;28;20111;-26
2022/05/03 07:59:41;;;;;;;7.88;6.55;;;;;;;13.50;57.02;100983.13;5082429;28;20058;-26
2022/05/03 08:02:07;;;;;;;8.30;6.13;;;;;;;13.60;57.34;100979.41;5071348;28;20043;-26
2022/05/03 08:04:33;;;;;;;6.30;5.70;;;;;;;13.76;57.60;100981.78;5086457;28;20023;-26
2022/05/03 08:06:59;;;;;;;8.07;5.93;;;;;;;13.86;57.07;100983.38;5083548;28;20067;-26
2022/05/03 08:09:24;;;;;;;6.85;5.65;;;;;;;14.01;57.30;100986.66;5087911;28;20032;-26
2022/05/03 08:11:50;;;;;;;6.45;5.85;;;;;;;14.13;57.52;100990.88;5083989;28;20031;-26
2022/05/03 08:14:15;;;;;;;7.10;5.82;;;;;;;14.28;57.95;100998.53;5083683;28;20024;-26
2022/05/03 08:16:41;;;;;;;7.35;6.15;;;;;;;14.40;57.84;100994.75;5085936;28;20019;-26
2022/05/03 08:19:06;;;;;;;7.10;5.80;;;;;;;14.55;58.49;100992.69;5102773;28;20051;-27
2022/05/03 08:21:35;;;;;;;7.35;6.03;;;;;;;14.65;57.40;100999.56;5086983;28;20050;-27
2022/05/03 08:24:01;;;;;;;8.25;5.85;;;;;;;14.75;57.28;100998.44;5097978;28;20174;-26
2022/05/03 08:26:26;;;;;;;7.65;6.13;;;;;;;14.88;56.95;101006.19;5081269;28;20115;-28
2022/05/03 08:28:52;;;;;;;10.80;6.03;;;;;;;15.01;57.95;101002.34;5081817;28;20021;-29
2022/05/03 08:31:17;;;;;;;7.05;5.72;;;;;;;15.12;57.69;101003.88;5085909;28;20488;-26
2022/05/03 08:33:44;;;;;;;6.63;5.85;;;;;;;15.24;57.76;100997.44;5080379;28;20047;-28
2022/05/03 08:36:09;;;;;;;7.68;5.32;;;;;;;15.37;57.02;100998.00;5084195;28;20012;-26
2022/05/03 08:44:03;;;;;;;6.38;5.07;;;;;;;15.75;56.89;101024.56;5085055;28;20081;-26
2022/05/03 08:46:30;;;;;;;6.50;5.47;;;;;;;15.86;56.79;101010.97;5084471;28;20028;-26
2022/05/03 08:49:03;;;;;;;7.55;5.70;;;;;;;15.99;57.21;101012.44;5082772;28;20028;-27
2022/05/03 08:51:30;;;;;;;7.07;6.00;;;;;;;16.12;56.72;101023.63;5086791;28;20434;-26
2022/05/03 08:53:56;;;;;;;5.20;4.57;;;;;;;16.24;56.97;101011.78;5084393;28;20084;-26
2022/05/03 08:56:22;;;;;;;6.05;5.45;;;;;;;16.34;55.98;101003.56;5083470;28;20209;-26
2022/05/03 08:58:47;;;;;;;6.22;5.63;;;;;;;16.42;54.13;101017.50;5081646;28;20028;-26
2022/05/03 09:01:13;;;;;;;5.57;4.53;;;;;;;16.55;55.45;101016.22;5086152;28;20097;-26
2022/05/03 09:03:39;;;;;;;6.65;5.40;;;;;;;16.69;56.47;101017.63;5085994;28;20024;-26
2022/05/03 09:06:05;;;;;;;6.32;4.80;;;;;;;16.82;56.29;101001.28;5083864;28;20051;-26
2022/05/03 09:08:32;;;;;;;5.43;4.70;;;;;;;16.91;55.36;101006.34;5083301;28;20017;-27
2022/05/03 09:10:57;;;;;;;6.15;4.97;;;;;;;16.99;53.24;101003.44;5086187;28;20069;-28
2022/05/03 09:13:24;;;;;;;5.55;5.05;;;;;;;17.10;54.83;101005.81;5080859;28;20016;-27
2022/05/03 09:15:56;;;;;;;7.65;5.22;;;;;;;17.20;54.25;101006.41;5078665;28;20483;-26
2022/05/03 09:18:22;;;;;;;7.85;5.05;;;;;;;17.29;54.88;101006.09;5098697;28;20043;-26
2022/05/03 09:23:48;;;;;;;5.18;4.65;;;;;;;17.53;54.27;100993.75;5086402;28;20035;-28
2022/05/03 09:26:18;;;;;;;5.22;4.72;;;;;;;17.63;53.18;101004.09;5084514;28;20077;-26
2022/05/03 09:29:03;;;;;;;7.10;4.63;;;;;;;17.75;53.44;100995.69;5083072;28;20020;-26
2022/05/03 09:31:39;;;;;;;5.22;4.72;;;;;;;17.91;54.61;100997.84;5082436;28;20055;-27
2022/05/03 09:34:19;;;;;;;10.48;5.22;;;;;;;18.01;53.27;100993.91;5077204;28;20055;-26
2022/05/03 09:36:47;;;;;;;5.70;4.80;;;;;;;18.11;53.41;100990.97;5081225;28;20019;-26
2022/05/03 09:39:33;;;;;;;5.93;4.55;;;;;;;18.21;51.83;101000.38;5083813;28;20270;-27
2022/05/03 09:42:10;;;;;;;6.05;4.60;;;;;;;18.31;51.19;100991.09;5083025;28;20016;-26
2022/05/03 09:44:37;;;;;;;5.68;4.65;;;;;;;18.40;49.78;100995.22;5082068;28;20028;-26
2022/05/03 09:47:09;;;;;;;5.68;4.45;;;;;;;18.55;53.55;100988.47;5085277;28;20020;-26
2022/05/03 09:49:42;;;;;;;5.53;5.00;;;;;;;18.62;50.03;100990.88;5082529;28;20028;-26
2022/05/03 09:52:09;;;;;;;5.13;4.60;;;;;;;18.74;51.95;100997.56;5079811;28;20488;-26
2022/05/03 09:54:50;;;;;;;5.20;4.63;;;;;;;18.88;51.37;100989.00;5082748;28;20027;-27
2022/05/03 09:57:21;;;;;;;6.95;4.40;;;;;;;18.94;49.42;100986.09;5080643;28;20423;-27
2022/05/03 09:59:51;;;;;;;6.07;4.28;;;;;;;19.08;52.92;100985.59;5080821;28;20020;-26
2022/05/03 10:02:17;;;;;;;4.97;4.45;;;;;;;19.15;49.76;100983.53;5084561;28;20031;-27
2022/05/03 10:04:48;;;;;;;5.63;4.75;;;;;;;19.21;49.00;100985.97;5084070;28;20016;-26
2022/05/03 10:07:14;;;;;;;5.05;3.92;;;;;;;19.32;48.73;100978.38;5082102;28;20400;-26
2022/05/03 10:09:44;;;;;;;6.45;5.47;;;;;;;19.42;48.64;100975.31;5080929;28;20043;-26
2022/05/03 10:12:14;;;;;;;6.73;5.53;;;;;;;19.49;47.51;100971.44;5082075;28;20106;-26
2022/05/03 10:14:40;;;;;;;9.35;5.68;;;;;;;19.55;46.79;100976.56;5084346;28;20289;-26
2022/05/03 10:22:39;;;;;;;5.63;5.03;;;;;;;19.85;46.80;100972.63;5079262;28;20074;-26
2022/05/03 10:25:05;;;;;;;7.88;5.25;;;;;;;19.92;46.73;100967.84;5081681;28;20077;-26
2022/05/03 10:27:32;;;;;;;7.18;5.22;;;;;;;20.00;46.15;100971.09;5080692;28;20392;-27
2022/05/03 10:30:20;;;;;;;6.32;5.72;;;;;;;20.07;45.41;100972.56;5079396;28;20119;-26
2022/05/03 10:33:20;;;;;;;5.85;5.22;;;;;;;20.18;45.56;100968.53;5083295;28;20047;-26
2022/05/03 10:35:50;;;;;;;7.47;5.60;;;;;;;20.24;46.20;100961.09;5077122;28;20036;-26
2022/05/03 10:38:15;;;;;;;5.47;4.55;;;;;;;20.32;45.65;100968.78;5084421;28;20028;-26
2022/05/03 10:40:48;;;;;;;5.97;5.35;;;;;;;20.41;46.25;100966.63;5096759;28;20051;-27
2022/05/03 10:43:27;;;;;;;7.05;6.00;;;;;;;20.48;45.80;100971.63;5079412;28;20036;-26
2022/05/03 10:45:55;;;;;;;6.40;5.70;;;;;;;20.54;44.87;100966.94;5098978;28;20024;-26
2022/05/03 10:48:30;;;;;;;6.25;5.63;;;;;;;20.62;44.89;100964.75;5083368;28;21612;-26
2022/05/03 10:51:04;;;;;;;7.72;5.93;;;;;;;20.69;45.08;100960.84;5088730;28;20036;-27
2022/05/03 10:53:34;;;;;;;6.65;5.95;;;;;;;20.76;44.92;100953.38;5086399;28;20035;-26
2022/05/03 10:56:16;;;;;;;8.77;7.13;;;;;;;20.82;43.91;100952.22;5085923;28;20017;-26
2022/05/03 10:58:43;;;;;;;7.65;5.05;;;;;;;20.88;43.81;100946.56;5083059;28;20085;-26
2022/05/03 11:01:16;;;;;;;6.13;5.53;;;;;;;20.95;43.63;100949.84;5086639;28;20051;-26
2022/05/03 11:03:48;;;;;;;6.53;5.93;;;;;;;21.02;43.60;100949.50;5084669;28;20012;-26
2022/05/03 11:06:16;;;;;;;7.25;6.13;;;;;;;21.06;43.47;100942.16;5086677;28;20050;-26
2022/05/03 11:08:59;;;;;;;6.82;6.15;;;;;;;21.15;43.35;100951.56;5082693;28;20024;-26
2022/05/03 11:11:43;;;;;;;7.18;6.40;;;;;;;21.22;43.19;100944.06;5083363;28;20071;-26
2022/05/03 11:14:19;;;;;;;9.98;6.28;;;;;;;21.26;43.93;100948.34;5087724;28;20020;-26
2022/05/03 11:17:04;;;;;;;6.85;6.22;;;;;;;21.33;43.16;100941.72;5085488;28;20027;-26
2022/05/03 11:19:31;;;;;;;9.23;6.47;;;;;;;21.37;43.00;100945.97;5081756;28;20434;-26
2022/05/03 11:21:58;;;;;;;6.10;5.60;;;;;;;21.43;43.02;100938.56;5085284;28;20035;-26
2022/05/03 11:24:25;;;;;;;7.70;6.07;;;;;;;21.50;42.39;100935.50;5081705;28;20024;-26
2022/05/03 11:26:53;;;;;;;6.55;5.88;;;;;;;21.54;43.06;100931.72;5088124;28;20432;-26
2022/05/03 11:29:19;;;;;;;7.30;5.90;;;;;;;21.58;42.89;100931.56;5086544;28;20415;-26
2022/05/03 11:31:48;;;;;;;8.40;5.95;;;;;;;21.62;42.29;100928.66;5085220;28;20032;-26
2022/05/03 11:34:14;;;;;;;6.78;5.90;;;;;;;21.69;41.74;100925.63;5081508;28;20395;-26
2022/05/03 11:36:42;;;;;;;6.05;5.43;;;;;;;21.75;42.26;100925.34;5080221;28;20029;-27
2022/05/03 11:39:09;;;;;;;6.32;5.60;;;;;;;21.80;42.53;100923.28;5083314;28;20519;-26
2022/05/03 11:41:36;;;;;;;6.00;5.40;;;;;;;21.86;42.06;100930.13;5084704;28;20032;-26
2022/05/03 11:44:02;;;;;;;6.88;5.75;;;;;;;21.90;42.08;100919.16;5083301;28;20020;-26
2022/05/03 11:46:28;;;;;;;6.35;5.75;;;;;;;21.97;42.12;100918.84;5081650;28;20503;-26
2022/05/03 11:49:01;;;;;;;8.63;5.78;;;;;;;21.98;41.71;100920.56;5102015;28;20024;-26
2022/05/03 11:57:17;;;;;;;6.40;5.80;;;;;;;22.13;41.34;100911.69;5083208;28;20043;-26
2022/05/03 11:59:43;;;;;;;6.50;5.55;;;;;;;22.20;41.14;100903.31;5080299;28;20122;-26
2022/05/03 12:02:22;;;;;;;5.90;5.20;;;;;;;22.26;41.82;100900.25;5081993;28;20474;-26